sensor_id;sensor_type;location;lat;lon;timestamp;P1;durP1;ratioP1;P2;durP2;ratioP2
71734;SDS011;59577;52.122;5.406;2022-08-30T00:02:34;3.53;;;1.80;;
71734;SDS011;59577;52.122;5.406;2022-08-30T00:05:01;3.33;;;1.73;;
71734;SDS011;59577;52.122;5.406;2022-08-30T00:07:29;3.78;;;1.98;;
71734;SDS011;59577;52.122;5.406;2022-08-30T00:09:56;2.70;;;1.77;;
71734;SDS011;59577;52.122;5.406;2022-08-30T00:12:22;2.83;;;2.00;;
71734;SDS011;59577;52.122;5.406;2022-08-30T00:14:48;4.57;;;1.83;;
71734;SDS011;59577;52.122;5.406;2022-08-30T00:17:15;3.05;;;1.77;;
71734;SDS011;59577;52.122;5.406;2022-08-30T00:19:42;2.17;;;1.60;;
71734;SDS011;59577;52.122;5.406;2022-08-30T00:22:08;2.20;;;1.38;;
71734;SDS011;59577;52.122;5.406;2022-08-30T00:24:35;3.00;;;1.52;;
71734;SDS011;59577;52.122;5.406;2022-08-30T00:27:01;3.50;;;1.90;;
71734;SDS011;59577;52.122;5.406;2022-08-30T00:29:28;3.42;;;1.98;;
71734;SDS011;59577;52.122;5.406;2022-08-30T00:31:55;3.28;;;1.55;;
71734;SDS011;59577;52.122;5.406;2022-08-30T00:34:21;2.47;;;1.63;;
71734;SDS011;59577;52.122;5.406;2022-08-30T00:36:48;4.53;;;1.60;;
71734;SDS011;59577;52.122;5.406;2022-08-30T00:39:16;2.78;;;1.88;;
71734;SDS011;59577;52.122;5.406;2022-08-30T00:41:43;3.33;;;1.90;;
71734;SDS011;59577;52.122;5.406;2022-08-30T00:44:09;3.72;;;2.10;;
71734;SDS011;59577;52.122;5.406;2022-08-30T00:46:36;3.10;;;2.08;;
71734;SDS011;59577;52.122;5.406;2022-08-30T00:49:05;2.60;;;1.90;;
71734;SDS011;59577;52.122;5.406;2022-08-30T00:51:33;5.35;;;2.20;;
71734;SDS011;59577;52.122;5.406;2022-08-30T00:54:00;5.18;;;2.30;;
71734;SDS011;59577;52.122;5.406;2022-08-30T00:56:29;5.18;;;2.00;;
71734;SDS011;59577;52.122;5.406;2022-08-30T00:58:58;3.20;;;1.98;;
71734;SDS011;59577;52.122;5.406;2022-08-30T01:01:27;2.80;;;2.20;;
71734;SDS011;59577;52.122;5.406;2022-08-30T01:03:57;2.80;;;1.67;;
71734;SDS011;59577;52.122;5.406;2022-08-30T01:06:24;2.47;;;1.90;;
71734;SDS011;59577;52.122;5.406;2022-08-30T01:08:57;5.03;;;2.35;;
71734;SDS011;59577;52.122;5.406;2022-08-30T01:11:25;5.47;;;1.98;;
71734;SDS011;59577;52.122;5.406;2022-08-30T01:13:53;2.40;;;1.85;;
71734;SDS011;59577;52.122;5.406;2022-08-30T01:16:21;3.22;;;2.38;;
71734;SDS011;59577;52.122;5.406;2022-08-30T01:18:52;4.70;;;2.20;;
71734;SDS011;59577;52.122;5.406;2022-08-30T01:21:27;3.22;;;2.20;;
71734;SDS011;59577;52.122;5.406;2022-08-30T01:24:00;2.65;;;2.10;;
71734;SDS011;59577;52.122;5.406;2022-08-30T01:26:28;4.53;;;2.25;;
71734;SDS011;59577;52.122;5.406;2022-08-30T01:28:56;2.40;;;2.00;;
71734;SDS011;59577;52.122;5.406;2022-08-30T01:31:27;4.40;;;1.83;;
71734;SDS011;59577;52.122;5.406;2022-08-30T01:33:53;2.28;;;1.80;;
71734;SDS011;59577;52.122;5.406;2022-08-30T01:36:20;4.80;;;2.47;;
71734;SDS011;59577;52.122;5.406;2022-08-30T01:38:51;3.78;;;2.00;;
71734;SDS011;59577;52.122;5.406;2022-08-30T01:41:21;3.72;;;2.15;;
71734;SDS011;59577;52.122;5.406;2022-08-30T01:43:57;4.10;;;2.42;;
71734;SDS011;59577;52.122;5.406;2022-08-30T01:46:36;4.57;;;2.42;;
71734;SDS011;59577;52.122;5.406;2022-08-30T01:49:06;5.13;;;2.60;;
71734;SDS011;59577;52.122;5.406;2022-08-30T01:51:34;4.28;;;2.50;;
71734;SDS011;59577;52.122;5.406;2022-08-30T01:54:02;7.00;;;2.42;;
71734;SDS011;59577;52.122;5.406;2022-08-30T01:56:29;3.33;;;2.47;;
71734;SDS011;59577;52.122;5.406;2022-08-30T01:58:55;6.40;;;2.72;;
71734;SDS011;59577;52.122;5.406;2022-08-30T02:01:28;5.43;;;2.50;;
71734;SDS011;59577;52.122;5.406;2022-08-30T02:04:08;5.38;;;2.80;;
71734;SDS011;59577;52.122;5.406;2022-08-30T02:07:38;3.65;;;2.63;;
71734;SDS011;59577;52.122;5.406;2022-08-30T02:10:30;4.20;;;2.70;;
71734;SDS011;59577;52.122;5.406;2022-08-30T02:13:12;5.40;;;2.95;;
71734;SDS011;59577;52.122;5.406;2022-08-30T02:15:42;4.85;;;2.67;;
71734;SDS011;59577;52.122;5.406;2022-08-30T02:18:09;5.53;;;2.63;;
71734;SDS011;59577;52.122;5.406;2022-08-30T02:20:36;3.22;;;2.65;;
71734;SDS011;59577;52.122;5.406;2022-08-30T02:23:04;3.25;;;2.45;;
71734;SDS011;59577;52.122;5.406;2022-08-30T02:25:31;3.63;;;3.00;;
71734;SDS011;59577;52.122;5.406;2022-08-30T02:27:57;3.90;;;2.60;;
71734;SDS011;59577;52.122;5.406;2022-08-30T02:30:24;3.28;;;2.97;;
71734;SDS011;59577;52.122;5.406;2022-08-30T02:32:50;5.25;;;3.50;;
71734;SDS011;59577;52.122;5.406;2022-08-30T02:35:17;3.40;;;2.90;;
71734;SDS011;59577;52.122;5.406;2022-08-30T02:37:44;4.47;;;3.58;;
71734;SDS011;59577;52.122;5.406;2022-08-30T02:40:11;7.13;;;3.15;;
71734;SDS011;59577;52.122;5.406;2022-08-30T02:42:40;3.97;;;2.92;;
71734;SDS011;59577;52.122;5.406;2022-08-30T02:45:07;3.78;;;3.10;;
71734;SDS011;59577;52.122;5.406;2022-08-30T02:47:58;5.50;;;3.67;;
71734;SDS011;59577;52.122;5.406;2022-08-30T02:50:26;4.18;;;3.30;;
71734;SDS011;59577;52.122;5.406;2022-08-30T02:53:06;6.53;;;3.30;;
71734;SDS011;59577;52.122;5.406;2022-08-30T02:55:34;6.03;;;3.47;;
71734;SDS011;59577;52.122;5.406;2022-08-30T02:58:04;4.13;;;3.03;;
71734;SDS011;59577;52.122;5.406;2022-08-30T03:00:31;4.82;;;3.22;;
71734;SDS011;59577;52.122;5.406;2022-08-30T03:02:59;4.00;;;3.40;;
71734;SDS011;59577;52.122;5.406;2022-08-30T03:05:31;6.60;;;3.33;;
71734;SDS011;59577;52.122;5.406;2022-08-30T03:07:58;4.85;;;3.53;;
71734;SDS011;59577;52.122;5.406;2022-08-30T03:10:26;3.92;;;3.47;;
71734;SDS011;59577;52.122;5.406;2022-08-30T03:12:54;6.85;;;3.10;;
71734;SDS011;59577;52.122;5.406;2022-08-30T03:15:21;4.72;;;3.13;;
71734;SDS011;59577;52.122;5.406;2022-08-30T03:17:51;5.40;;;3.28;;
71734;SDS011;59577;52.122;5.406;2022-08-30T03:20:19;10.70;;;3.70;;
71734;SDS011;59577;52.122;5.406;2022-08-30T03:22:46;5.55;;;3.78;;
71734;SDS011;59577;52.122;5.406;2022-08-30T03:25:13;3.70;;;3.00;;
71734;SDS011;59577;52.122;5.406;2022-08-30T03:27:40;4.10;;;2.85;;
71734;SDS011;59577;52.122;5.406;2022-08-30T03:30:07;4.90;;;3.78;;
71734;SDS011;59577;52.122;5.406;2022-08-30T03:32:34;5.47;;;3.50;;
71734;SDS011;59577;52.122;5.406;2022-08-30T03:35:02;4.22;;;3.83;;
71734;SDS011;59577;52.122;5.406;2022-08-30T03:37:29;3.70;;;3.35;;
71734;SDS011;59577;52.122;5.406;2022-08-30T03:39:55;4.13;;;3.70;;
71734;SDS011;59577;52.122;5.406;2022-08-30T03:42:22;6.18;;;4.22;;
71734;SDS011;59577;52.122;5.406;2022-08-30T03:44:49;6.65;;;3.92;;
71734;SDS011;59577;52.122;5.406;2022-08-30T03:47:17;4.57;;;3.90;;
71734;SDS011;59577;52.122;5.406;2022-08-30T03:49:43;4.13;;;3.65;;
71734;SDS011;59577;52.122;5.406;2022-08-30T03:52:10;4.93;;;3.83;;
71734;SDS011;59577;52.122;5.406;2022-08-30T03:54:36;8.73;;;4.00;;
71734;SDS011;59577;52.122;5.406;2022-08-30T03:57:27;7.38;;;3.92;;
71734;SDS011;59577;52.122;5.406;2022-08-30T03:59:53;4.55;;;3.25;;
71734;SDS011;59577;52.122;5.406;2022-08-30T04:02:20;5.43;;;4.13;;
71734;SDS011;59577;52.122;5.406;2022-08-30T04:04:47;4.32;;;3.78;;
71734;SDS011;59577;52.122;5.406;2022-08-30T04:07:13;4.32;;;3.17;;
71734;SDS011;59577;52.122;5.406;2022-08-30T04:09:40;4.65;;;3.80;;
71734;SDS011;59577;52.122;5.406;2022-08-30T04:12:07;5.60;;;4.20;;
71734;SDS011;59577;52.122;5.406;2022-08-30T04:14:34;4.30;;;3.60;;
71734;SDS011;59577;52.122;5.406;2022-08-30T04:17:00;5.28;;;3.78;;
71734;SDS011;59577;52.122;5.406;2022-08-30T04:19:27;3.50;;;3.20;;
71734;SDS011;59577;52.122;5.406;2022-08-30T04:21:53;4.40;;;3.42;;
71734;SDS011;59577;52.122;5.406;2022-08-30T04:24:20;6.57;;;4.05;;
71734;SDS011;59577;52.122;5.406;2022-08-30T04:26:46;4.53;;;3.90;;
71734;SDS011;59577;52.122;5.406;2022-08-30T04:29:13;3.85;;;3.53;;
71734;SDS011;59577;52.122;5.406;2022-08-30T04:31:42;5.05;;;4.00;;
71734;SDS011;59577;52.122;5.406;2022-08-30T04:34:10;4.65;;;3.72;;
71734;SDS011;59577;52.122;5.406;2022-08-30T04:36:38;5.53;;;3.95;;
71734;SDS011;59577;52.122;5.406;2022-08-30T04:39:05;8.75;;;4.15;;
71734;SDS011;59577;52.122;5.406;2022-08-30T04:41:32;5.13;;;4.25;;
71734;SDS011;59577;52.122;5.406;2022-08-30T04:44:00;8.57;;;3.38;;
71734;SDS011;59577;52.122;5.406;2022-08-30T04:46:28;3.80;;;3.25;;
71734;SDS011;59577;52.122;5.406;2022-08-30T04:48:55;6.55;;;4.00;;
71734;SDS011;59577;52.122;5.406;2022-08-30T04:51:22;5.97;;;3.67;;
71734;SDS011;59577;52.122;5.406;2022-08-30T04:53:48;4.78;;;3.35;;
71734;SDS011;59577;52.122;5.406;2022-08-30T04:56:16;5.25;;;3.72;;
71734;SDS011;59577;52.122;5.406;2022-08-30T04:58:47;4.60;;;4.00;;
71734;SDS011;59577;52.122;5.406;2022-08-30T05:01:17;4.43;;;3.97;;
71734;SDS011;59577;52.122;5.406;2022-08-30T05:03:49;5.43;;;4.53;;
71734;SDS011;59577;52.122;5.406;2022-08-30T05:06:16;4.30;;;3.90;;
71734;SDS011;59577;52.122;5.406;2022-08-30T05:08:44;7.82;;;3.60;;
71734;SDS011;59577;52.122;5.406;2022-08-30T05:11:12;6.22;;;4.47;;
71734;SDS011;59577;52.122;5.406;2022-08-30T05:13:40;5.10;;;4.57;;
71734;SDS011;59577;52.122;5.406;2022-08-30T05:16:06;9.20;;;4.00;;
71734;SDS011;59577;52.122;5.406;2022-08-30T05:18:34;5.68;;;4.30;;
71734;SDS011;59577;52.122;5.406;2022-08-30T05:21:08;6.88;;;4.43;;
71734;SDS011;59577;52.122;5.406;2022-08-30T05:23:39;5.05;;;3.47;;
71734;SDS011;59577;52.122;5.406;2022-08-30T05:26:07;4.60;;;4.05;;
71734;SDS011;59577;52.122;5.406;2022-08-30T05:28:38;6.20;;;4.53;;
71734;SDS011;59577;52.122;5.406;2022-08-30T05:31:12;5.15;;;4.65;;
71734;SDS011;59577;52.122;5.406;2022-08-30T05:33:40;5.05;;;3.40;;
71734;SDS011;59577;52.122;5.406;2022-08-30T05:36:07;6.97;;;3.95;;
71734;SDS011;59577;52.122;5.406;2022-08-30T05:38:35;7.82;;;4.57;;
71734;SDS011;59577;52.122;5.406;2022-08-30T05:41:01;5.05;;;3.70;;
71734;SDS011;59577;52.122;5.406;2022-08-30T05:43:36;5.85;;;4.35;;
71734;SDS011;59577;52.122;5.406;2022-08-30T05:46:07;10.35;;;4.70;;
71734;SDS011;59577;52.122;5.406;2022-08-30T05:48:35;6.05;;;4.40;;
71734;SDS011;59577;52.122;5.406;2022-08-30T05:51:04;5.88;;;4.50;;
71734;SDS011;59577;52.122;5.406;2022-08-30T05:53:37;4.23;;;3.80;;
71734;SDS011;59577;52.122;5.406;2022-08-30T05:56:05;4.78;;;3.28;;
71734;SDS011;59577;52.122;5.406;2022-08-30T05:58:33;9.82;;;4.60;;
71734;SDS011;59577;52.122;5.406;2022-08-30T06:01:00;6.53;;;4.20;;
71734;SDS011;59577;52.122;5.406;2022-08-30T06:03:27;8.60;;;3.65;;
71734;SDS011;59577;52.122;5.406;2022-08-30T06:05:54;9.07;;;3.88;;
71734;SDS011;59577;52.122;5.406;2022-08-30T06:08:20;7.75;;;4.43;;
71734;SDS011;59577;52.122;5.406;2022-08-30T06:10:47;3.95;;;3.55;;
71734;SDS011;59577;52.122;5.406;2022-08-30T06:13:13;3.55;;;3.25;;
71734;SDS011;59577;52.122;5.406;2022-08-30T06:15:40;8.13;;;3.45;;
71734;SDS011;59577;52.122;5.406;2022-08-30T06:18:10;3.67;;;3.20;;
71734;SDS011;59577;52.122;5.406;2022-08-30T06:20:41;6.23;;;3.50;;
71734;SDS011;59577;52.122;5.406;2022-08-30T06:23:09;3.47;;;2.70;;
71734;SDS011;59577;52.122;5.406;2022-08-30T06:25:36;6.65;;;3.33;;
71734;SDS011;59577;52.122;5.406;2022-08-30T06:28:07;5.22;;;3.40;;
71734;SDS011;59577;52.122;5.406;2022-08-30T06:30:34;3.17;;;2.60;;
71734;SDS011;59577;52.122;5.406;2022-08-30T06:33:01;4.73;;;3.03;;
71734;SDS011;59577;52.122;5.406;2022-08-30T06:35:27;6.22;;;3.28;;
71734;SDS011;59577;52.122;5.406;2022-08-30T06:38:00;3.30;;;3.00;;
71734;SDS011;59577;52.122;5.406;2022-08-30T06:40:26;6.70;;;3.67;;
71734;SDS011;59577;52.122;5.406;2022-08-30T06:42:59;4.07;;;3.40;;
71734;SDS011;59577;52.122;5.406;2022-08-30T06:45:26;4.23;;;3.60;;
71734;SDS011;59577;52.122;5.406;2022-08-30T06:47:52;3.80;;;3.20;;
71734;SDS011;59577;52.122;5.406;2022-08-30T06:50:19;6.10;;;3.00;;
71734;SDS011;59577;52.122;5.406;2022-08-30T06:52:46;4.70;;;3.17;;
71734;SDS011;59577;52.122;5.406;2022-08-30T06:55:13;3.28;;;2.92;;
71734;SDS011;59577;52.122;5.406;2022-08-30T06:57:41;2.90;;;2.70;;
71734;SDS011;59577;52.122;5.406;2022-08-30T07:00:08;2.42;;;2.00;;
71734;SDS011;59577;52.122;5.406;2022-08-30T07:02:39;4.13;;;2.25;;
71734;SDS011;59577;52.122;5.406;2022-08-30T07:05:07;7.50;;;2.20;;
71734;SDS011;59577;52.122;5.406;2022-08-30T07:07:34;2.78;;;1.80;;
71734;SDS011;59577;52.122;5.406;2022-08-30T07:10:01;4.63;;;2.20;;
71734;SDS011;59577;52.122;5.406;2022-08-30T07:12:29;4.15;;;2.20;;
71734;SDS011;59577;52.122;5.406;2022-08-30T07:14:56;4.00;;;1.85;;
71734;SDS011;59577;52.122;5.406;2022-08-30T07:17:23;3.78;;;1.80;;
71734;SDS011;59577;52.122;5.406;2022-08-30T07:20:08;1.85;;;1.27;;
71734;SDS011;59577;52.122;5.406;2022-08-30T07:22:35;1.97;;;1.20;;
71734;SDS011;59577;52.122;5.406;2022-08-30T07:25:02;8.23;;;0.98;;
71734;SDS011;59577;52.122;5.406;2022-08-30T07:27:29;1.20;;;0.90;;
71734;SDS011;59577;52.122;5.406;2022-08-30T07:29:55;2.45;;;0.80;;
71734;SDS011;59577;52.122;5.406;2022-08-30T07:32:23;1.92;;;0.77;;
71734;SDS011;59577;52.122;5.406;2022-08-30T07:34:50;3.47;;;0.70;;
71734;SDS011;59577;52.122;5.406;2022-08-30T07:37:17;5.45;;;0.80;;
71734;SDS011;59577;52.122;5.406;2022-08-30T07:39:44;3.85;;;0.70;;
71734;SDS011;59577;52.122;5.406;2022-08-30T07:42:13;3.08;;;0.70;;
71734;SDS011;59577;52.122;5.406;2022-08-30T07:44:40;1.90;;;0.70;;
71734;SDS011;59577;52.122;5.406;2022-08-30T07:47:07;1.33;;;0.57;;
71734;SDS011;59577;52.122;5.406;2022-08-30T07:49:35;1.40;;;0.60;;
71734;SDS011;59577;52.122;5.406;2022-08-30T07:52:03;1.55;;;0.52;;
71734;SDS011;59577;52.122;5.406;2022-08-30T07:54:29;4.60;;;0.55;;
71734;SDS011;59577;52.122;5.406;2022-08-30T07:56:59;1.35;;;0.30;;
71734;SDS011;59577;52.122;5.406;2022-08-30T07:59:33;1.00;;;0.40;;
71734;SDS011;59577;52.122;5.406;2022-08-30T08:02:01;1.10;;;0.35;;
71734;SDS011;59577;52.122;5.406;2022-08-30T08:04:28;2.20;;;0.50;;
71734;SDS011;59577;52.122;5.406;2022-08-30T08:06:54;2.35;;;0.40;;
71734;SDS011;59577;52.122;5.406;2022-08-30T08:09:21;13.13;;;2.00;;
71734;SDS011;59577;52.122;5.406;2022-08-30T08:11:47;9.77;;;0.70;;
71734;SDS011;59577;52.122;5.406;2022-08-30T08:14:14;3.45;;;0.70;;
71734;SDS011;59577;52.122;5.406;2022-08-30T08:16:40;2.85;;;0.50;;
71734;SDS011;59577;52.122;5.406;2022-08-30T08:19:10;1.70;;;0.45;;
71734;SDS011;59577;52.122;5.406;2022-08-30T08:21:37;0.98;;;0.50;;
71734;SDS011;59577;52.122;5.406;2022-08-30T08:24:03;0.97;;;0.60;;
71734;SDS011;59577;52.122;5.406;2022-08-30T08:26:32;1.05;;;0.40;;
71734;SDS011;59577;52.122;5.406;2022-08-30T08:29:00;0.90;;;0.40;;
71734;SDS011;59577;52.122;5.406;2022-08-30T08:31:28;4.75;;;0.73;;
71734;SDS011;59577;52.122;5.406;2022-08-30T08:33:59;0.73;;;0.40;;
71734;SDS011;59577;52.122;5.406;2022-08-30T08:36:28;2.43;;;0.50;;
71734;SDS011;59577;52.122;5.406;2022-08-30T08:38:56;1.55;;;0.60;;
71734;SDS011;59577;52.122;5.406;2022-08-30T08:44:06;2.50;;;0.85;;
71734;SDS011;59577;52.122;5.406;2022-08-30T08:46:54;5.35;;;0.50;;
71734;SDS011;59577;52.122;5.406;2022-08-30T08:49:32;1.47;;;0.40;;
71734;SDS011;59577;52.122;5.406;2022-08-30T08:52:01;3.58;;;0.60;;
71734;SDS011;59577;52.122;5.406;2022-08-30T08:55:01;5.07;;;0.90;;
71734;SDS011;59577;52.122;5.406;2022-08-30T08:57:33;2.72;;;0.47;;
71734;SDS011;59577;52.122;5.406;2022-08-30T09:00:02;1.48;;;0.60;;
71734;SDS011;59577;52.122;5.406;2022-08-30T09:02:38;5.43;;;0.80;;
71734;SDS011;59577;52.122;5.406;2022-08-30T09:05:08;1.42;;;0.75;;
71734;SDS011;59577;52.122;5.406;2022-08-30T09:07:41;2.35;;;0.70;;
71734;SDS011;59577;52.122;5.406;2022-08-30T09:10:13;2.08;;;0.60;;
71734;SDS011;59577;52.122;5.406;2022-08-30T09:12:45;1.58;;;0.70;;
71734;SDS011;59577;52.122;5.406;2022-08-30T09:15:22;2.03;;;0.60;;
71734;SDS011;59577;52.122;5.406;2022-08-30T09:17:58;4.63;;;0.77;;
71734;SDS011;59577;52.122;5.406;2022-08-30T09:20:35;0.98;;;0.50;;
71734;SDS011;59577;52.122;5.406;2022-08-30T09:28:49;0.90;;;0.50;;
71734;SDS011;59577;52.122;5.406;2022-08-30T09:31:26;1.38;;;0.60;;
71734;SDS011;59577;52.122;5.406;2022-08-30T09:33:59;1.40;;;0.50;;
71734;SDS011;59577;52.122;5.406;2022-08-30T09:36:31;1.42;;;0.60;;
71734;SDS011;59577;52.122;5.406;2022-08-30T09:39:19;3.65;;;0.80;;
71734;SDS011;59577;52.122;5.406;2022-08-30T09:42:09;5.90;;;0.70;;
71734;SDS011;59577;52.122;5.406;2022-08-30T09:44:40;1.45;;;0.80;;
71734;SDS011;59577;52.122;5.406;2022-08-30T09:47:06;1.75;;;0.57;;
71734;SDS011;59577;52.122;5.406;2022-08-30T09:49:50;3.80;;;0.85;;
71734;SDS011;59577;52.122;5.406;2022-08-30T09:58:20;1.20;;;0.60;;
71734;SDS011;59577;52.122;5.406;2022-08-30T10:01:01;4.35;;;0.50;;
71734;SDS011;59577;52.122;5.406;2022-08-30T10:03:35;6.53;;;0.77;;
71734;SDS011;59577;52.122;5.406;2022-08-30T10:06:17;1.55;;;0.70;;
71734;SDS011;59577;52.122;5.406;2022-08-30T10:11:55;1.88;;;0.60;;
71734;SDS011;59577;52.122;5.406;2022-08-30T10:20:22;2.60;;;0.70;;
71734;SDS011;59577;52.122;5.406;2022-08-30T10:23:00;2.40;;;0.50;;
71734;SDS011;59577;52.122;5.406;2022-08-30T10:25:37;5.18;;;0.50;;
71734;SDS011;59577;52.122;5.406;2022-08-30T10:30:41;1.23;;;0.80;;
71734;SDS011;59577;52.122;5.406;2022-08-30T10:33:39;3.22;;;0.50;;
71734;SDS011;59577;52.122;5.406;2022-08-30T10:36:10;3.80;;;0.70;;
71734;SDS011;59577;52.122;5.406;2022-08-30T10:38:39;2.72;;;1.20;;
71734;SDS011;59577;52.122;5.406;2022-08-30T10:41:23;2.80;;;0.60;;
71734;SDS011;59577;52.122;5.406;2022-08-30T10:44:02;6.57;;;0.50;;
71734;SDS011;59577;52.122;5.406;2022-08-30T10:46:47;6.03;;;0.63;;
71734;SDS011;59577;52.122;5.406;2022-08-30T10:49:37;4.67;;;0.60;;
71734;SDS011;59577;52.122;5.406;2022-08-30T10:54:39;2.15;;;0.50;;
71734;SDS011;59577;52.122;5.406;2022-08-30T10:57:13;1.35;;;0.50;;
71734;SDS011;59577;52.122;5.406;2022-08-30T10:59:50;0.98;;;0.70;;
71734;SDS011;59577;52.122;5.406;2022-08-30T11:13:47;4.18;;;0.65;;
71734;SDS011;59577;52.122;5.406;2022-08-30T11:16:18;1.50;;;0.60;;
71734;SDS011;59577;52.122;5.406;2022-08-30T11:18:55;3.45;;;0.60;;
71734;SDS011;59577;52.122;5.406;2022-08-30T11:21:32;1.00;;;0.60;;
71734;SDS011;59577;52.122;5.406;2022-08-30T11:24:08;2.97;;;0.57;;
71734;SDS011;59577;52.122;5.406;2022-08-30T11:42:46;3.57;;;0.90;;
71734;SDS011;59577;52.122;5.406;2022-08-30T11:47:54;4.70;;;0.70;;
71734;SDS011;59577;52.122;5.406;2022-08-30T11:59:01;3.78;;;0.55;;
71734;SDS011;59577;52.122;5.406;2022-08-30T12:01:40;4.18;;;0.50;;
71734;SDS011;59577;52.122;5.406;2022-08-30T12:12:04;5.95;;;0.77;;
71734;SDS011;59577;52.122;5.406;2022-08-30T12:14:39;1.50;;;0.50;;
71734;SDS011;59577;52.122;5.406;2022-08-30T12:17:31;2.13;;;0.70;;
71734;SDS011;59577;52.122;5.406;2022-08-30T12:28:40;3.65;;;0.52;;
71734;SDS011;59577;52.122;5.406;2022-08-30T12:31:12;2.60;;;0.50;;
71734;SDS011;59577;52.122;5.406;2022-08-30T12:33:43;1.40;;;0.63;;
71734;SDS011;59577;52.122;5.406;2022-08-30T12:36:15;1.00;;;0.57;;
71734;SDS011;59577;52.122;5.406;2022-08-30T12:39:16;4.00;;;0.70;;
71734;SDS011;59577;52.122;5.406;2022-08-30T12:41:45;3.83;;;0.40;;
71734;SDS011;59577;52.122;5.406;2022-08-30T12:44:24;0.90;;;0.40;;
71734;SDS011;59577;52.122;5.406;2022-08-30T12:46:54;1.23;;;0.50;;
71734;SDS011;59577;52.122;5.406;2022-08-30T12:49:26;2.60;;;0.60;;
71734;SDS011;59577;52.122;5.406;2022-08-30T12:52:13;2.67;;;1.00;;
71734;SDS011;59577;52.122;5.406;2022-08-30T12:54:55;3.78;;;0.70;;
71734;SDS011;59577;52.122;5.406;2022-08-30T12:57:55;3.22;;;0.82;;
71734;SDS011;59577;52.122;5.406;2022-08-30T13:00:27;4.13;;;0.88;;
71734;SDS011;59577;52.122;5.406;2022-08-30T13:06:04;3.85;;;1.40;;
71734;SDS011;59577;52.122;5.406;2022-08-30T13:08:35;4.75;;;0.85;;
71734;SDS011;59577;52.122;5.406;2022-08-30T13:13:47;3.97;;;0.70;;
71734;SDS011;59577;52.122;5.406;2022-08-30T13:18:46;2.03;;;0.70;;
71734;SDS011;59577;52.122;5.406;2022-08-30T13:21:22;3.80;;;0.60;;
71734;SDS011;59577;52.122;5.406;2022-08-30T13:24:01;15.70;;;1.48;;
71734;SDS011;59577;52.122;5.406;2022-08-30T13:26:29;5.57;;;0.90;;
71734;SDS011;59577;52.122;5.406;2022-08-30T13:28:59;1.53;;;0.80;;
71734;SDS011;59577;52.122;5.406;2022-08-30T13:31:28;17.08;;;1.30;;
71734;SDS011;59577;52.122;5.406;2022-08-30T13:33:56;7.45;;;1.52;;
71734;SDS011;59577;52.122;5.406;2022-08-30T13:36:30;51.25;;;6.47;;
71734;SDS011;59577;52.122;5.406;2022-08-30T13:38:59;16.55;;;2.92;;
71734;SDS011;59577;52.122;5.406;2022-08-30T13:41:27;5.93;;;1.33;;
71734;SDS011;59577;52.122;5.406;2022-08-30T13:43:59;2.75;;;1.30;;
71734;SDS011;59577;52.122;5.406;2022-08-30T13:46:42;3.67;;;1.23;;
71734;SDS011;59577;52.122;5.406;2022-08-30T13:49:21;1.67;;;0.90;;
71734;SDS011;59577;52.122;5.406;2022-08-30T13:52:11;4.85;;;1.92;;
71734;SDS011;59577;52.122;5.406;2022-08-30T13:54:52;4.90;;;1.43;;
71734;SDS011;59577;52.122;5.406;2022-08-30T13:57:22;4.22;;;1.23;;
71734;SDS011;59577;52.122;5.406;2022-08-30T14:00:14;3.97;;;1.30;;
71734;SDS011;59577;52.122;5.406;2022-08-30T14:02:44;1.80;;;1.20;;
71734;SDS011;59577;52.122;5.406;2022-08-30T14:05:24;3.17;;;1.10;;
71734;SDS011;59577;52.122;5.406;2022-08-30T14:08:15;5.83;;;1.30;;
71734;SDS011;59577;52.122;5.406;2022-08-30T14:11:11;2.00;;;0.85;;
71734;SDS011;59577;52.122;5.406;2022-08-30T14:13:43;7.20;;;1.05;;
71734;SDS011;59577;52.122;5.406;2022-08-30T14:16:30;2.90;;;1.02;;
71734;SDS011;59577;52.122;5.406;2022-08-30T14:18:58;2.40;;;1.00;;
71734;SDS011;59577;52.122;5.406;2022-08-30T14:21:26;6.27;;;1.57;;
71734;SDS011;59577;52.122;5.406;2022-08-30T14:23:54;3.90;;;0.77;;
71734;SDS011;59577;52.122;5.406;2022-08-30T14:26:25;1.88;;;0.93;;
71734;SDS011;59577;52.122;5.406;2022-08-30T14:28:59;2.83;;;0.80;;
71734;SDS011;59577;52.122;5.406;2022-08-30T14:31:34;2.38;;;0.70;;
71734;SDS011;59577;52.122;5.406;2022-08-30T14:34:01;2.07;;;0.57;;
71734;SDS011;59577;52.122;5.406;2022-08-30T14:36:29;1.83;;;0.70;;
71734;SDS011;59577;52.122;5.406;2022-08-30T14:38:56;2.50;;;0.60;;
71734;SDS011;59577;52.122;5.406;2022-08-30T14:41:23;5.22;;;0.80;;
71734;SDS011;59577;52.122;5.406;2022-08-30T14:43:51;4.50;;;0.50;;
71734;SDS011;59577;52.122;5.406;2022-08-30T14:46:17;3.53;;;0.70;;
71734;SDS011;59577;52.122;5.406;2022-08-30T14:48:44;1.27;;;0.57;;
71734;SDS011;59577;52.122;5.406;2022-08-30T14:51:13;4.05;;;0.70;;
71734;SDS011;59577;52.122;5.406;2022-08-30T14:53:42;1.25;;;0.60;;
71734;SDS011;59577;52.122;5.406;2022-08-30T14:56:09;3.63;;;0.50;;
71734;SDS011;59577;52.122;5.406;2022-08-30T14:58:37;2.27;;;0.50;;
71734;SDS011;59577;52.122;5.406;2022-08-30T15:01:05;1.27;;;0.60;;
71734;SDS011;59577;52.122;5.406;2022-08-30T15:03:34;2.88;;;0.50;;
71734;SDS011;59577;52.122;5.406;2022-08-30T15:06:01;1.10;;;0.40;;
71734;SDS011;59577;52.122;5.406;2022-08-30T15:08:28;1.40;;;0.40;;
71734;SDS011;59577;52.122;5.406;2022-08-30T15:10:55;0.77;;;0.43;;
71734;SDS011;59577;52.122;5.406;2022-08-30T15:13:21;6.00;;;0.55;;
71734;SDS011;59577;52.122;5.406;2022-08-30T15:15:48;2.05;;;0.50;;
71734;SDS011;59577;52.122;5.406;2022-08-30T15:18:15;1.90;;;0.45;;
71734;SDS011;59577;52.122;5.406;2022-08-30T15:20:47;2.03;;;0.40;;
71734;SDS011;59577;52.122;5.406;2022-08-30T15:23:15;1.30;;;0.40;;
71734;SDS011;59577;52.122;5.406;2022-08-30T15:25:48;3.53;;;0.40;;
71734;SDS011;59577;52.122;5.406;2022-08-30T15:28:14;0.70;;;0.47;;
71734;SDS011;59577;52.122;5.406;2022-08-30T15:30:42;1.95;;;0.32;;
71734;SDS011;59577;52.122;5.406;2022-08-30T15:33:09;1.85;;;0.60;;
71734;SDS011;59577;52.122;5.406;2022-08-30T15:35:36;1.00;;;0.40;;
71734;SDS011;59577;52.122;5.406;2022-08-30T15:38:02;3.30;;;0.50;;
71734;SDS011;59577;52.122;5.406;2022-08-30T15:40:30;3.35;;;0.50;;
71734;SDS011;59577;52.122;5.406;2022-08-30T15:42:57;0.85;;;0.50;;
71734;SDS011;59577;52.122;5.406;2022-08-30T15:45:24;7.25;;;0.75;;
71734;SDS011;59577;52.122;5.406;2022-08-30T15:47:50;0.77;;;0.50;;
71734;SDS011;59577;52.122;5.406;2022-08-30T15:50:17;1.65;;;0.55;;
71734;SDS011;59577;52.122;5.406;2022-08-30T15:52:43;1.98;;;0.40;;
71734;SDS011;59577;52.122;5.406;2022-08-30T15:55:10;2.78;;;0.60;;
71734;SDS011;59577;52.122;5.406;2022-08-30T15:57:36;1.80;;;0.50;;
71734;SDS011;59577;52.122;5.406;2022-08-30T16:00:03;5.17;;;0.60;;
71734;SDS011;59577;52.122;5.406;2022-08-30T16:02:33;3.13;;;0.50;;
71734;SDS011;59577;52.122;5.406;2022-08-30T16:05:00;1.13;;;0.50;;
71734;SDS011;59577;52.122;5.406;2022-08-30T16:07:27;3.88;;;0.50;;
71734;SDS011;59577;52.122;5.406;2022-08-30T16:09:53;1.27;;;0.57;;
71734;SDS011;59577;52.122;5.406;2022-08-30T16:12:20;2.20;;;0.60;;
71734;SDS011;59577;52.122;5.406;2022-08-30T16:14:48;1.48;;;0.50;;
71734;SDS011;59577;52.122;5.406;2022-08-30T16:17:15;2.05;;;0.43;;
71734;SDS011;59577;52.122;5.406;2022-08-30T16:19:43;0.77;;;0.40;;
71734;SDS011;59577;52.122;5.406;2022-08-30T16:22:09;1.20;;;0.40;;
71734;SDS011;59577;52.122;5.406;2022-08-30T16:24:36;2.20;;;0.40;;
71734;SDS011;59577;52.122;5.406;2022-08-30T16:27:04;1.52;;;0.70;;
71734;SDS011;59577;52.122;5.406;2022-08-30T16:29:33;0.88;;;0.40;;
71734;SDS011;59577;52.122;5.406;2022-08-30T16:32:00;2.15;;;0.40;;
71734;SDS011;59577;52.122;5.406;2022-08-30T16:34:27;1.80;;;0.50;;
71734;SDS011;59577;52.122;5.406;2022-08-30T16:36:53;0.70;;;0.40;;
71734;SDS011;59577;52.122;5.406;2022-08-30T16:39:20;3.17;;;0.60;;
71734;SDS011;59577;52.122;5.406;2022-08-30T16:41:46;4.32;;;0.80;;